Time;durP1;ratioP1;P1;durP2;ratioP2;P2;SDS_P1;SDS_P2;PMS_P1;PMS_P2;Temp;Humidity;BMP_temperature;BMP_pressure;BME280_temperature;BME280_humidity;BME280_pressure;Samples;Min_cycle;Max_cycle;Signal;HPM_P1;HPM_P2
2023/07/05 00:00:10;;;;;;;6.37;3.60;;;;;;;19.44;67.92;156361.31;4994066;28;20454;-80
2023/07/05 00:02:37;;;;;;;5.03;3.77;;;;;;;19.46;68.37;156363.94;4984316;28;20489;-80
2023/07/05 00:05:03;;;;;;;5.47;3.83;;;;;;;19.46;68.54;156365.19;4988230;28;20457;-76
2023/07/05 00:07:30;;;;;;;6.37;3.40;;;;;;;19.46;68.76;156363.94;4987220;28;20532;-77
2023/07/05 00:09:57;;;;;;;4.60;3.43;;;;;;;19.48;68.87;156370.44;4988119;28;20456;-76
2023/07/05 00:12:23;;;;;;;4.00;3.20;;;;;;;19.51;69.01;156376.97;4991616;28;20464;-76
2023/07/05 00:14:51;;;;;;;3.37;3.07;;;;;;;19.56;69.28;156390.00;5002642;28;20481;-76
2023/07/05 00:17:18;;;;;;;3.63;3.20;;;;;;;19.57;69.47;156392.56;4991181;28;20457;-77
2023/07/05 00:19:50;;;;;;;4.03;3.40;;;;;;;19.54;69.67;156384.78;4990723;28;20501;-76
2023/07/05 00:22:16;;;;;;;4.17;3.77;;;;;;;19.47;69.90;156367.81;4988529;28;20526;-76
2023/07/05 00:24:43;;;;;;;4.53;4.10;;;;;;;19.39;69.95;156346.97;4986891;28;20548;-76
2023/07/05 00:27:10;;;;;;;5.10;4.37;;;;;;;19.31;70.42;156326.06;5001284;28;20453;-76
2023/07/05 00:29:36;;;;;;;4.77;3.50;;;;;;;19.25;70.45;156311.72;4987402;28;20472;-76
2023/07/05 00:32:05;;;;;;;3.80;3.20;;;;;;;19.22;70.49;156303.88;4986270;28;20459;-77
2023/07/05 00:34:31;;;;;;;5.20;3.90;;;;;;;19.21;70.87;156301.31;4987226;28;20485;-79
2023/07/05 00:36:58;;;;;;;5.43;3.63;;;;;;;19.22;70.98;156303.88;4979951;28;20544;-76
2023/07/05 00:39:26;;;;;;;3.90;3.23;;;;;;;19.20;71.00;156298.69;4967495;28;20475;-76
2023/07/05 00:41:53;;;;;;;3.90;3.50;;;;;;;19.14;71.61;156283.03;4987395;28;20462;-76
2023/07/05 00:44:19;;;;;;;4.50;3.40;;;;;;;19.12;71.84;156276.53;4986489;28;20497;-76
2023/07/05 00:46:49;;;;;;;4.43;3.40;;;;;;;19.09;72.09;156270.00;4971253;28;20523;-76
2023/07/05 00:49:18;;;;;;;3.23;2.87;;;;;;;19.08;72.04;156267.44;4967012;28;20981;-76
2023/07/05 00:51:48;;;;;;;3.20;2.90;;;;;;;19.08;72.05;156267.44;4984985;28;20465;-76
2023/07/05 00:54:17;;;;;;;3.90;2.63;;;;;;;19.09;72.18;156268.75;4972307;28;20481;-78
2023/07/05 00:56:47;;;;;;;4.50;3.30;;;;;;;19.07;72.46;156264.81;4987124;28;20457;-76
2023/07/05 00:59:16;;;;;;;3.80;3.40;;;;;;;19.07;72.51;156264.81;4983715;28;20485;-76
2023/07/05 01:01:43;;;;;;;5.23;3.20;;;;;;;19.07;72.33;156264.81;4985195;28;20469;-76
2023/07/05 01:04:09;;;;;;;2.87;2.57;;;;;;;19.06;72.70;156260.91;5000807;28;20464;-76
2023/07/05 01:06:39;;;;;;;3.70;2.77;;;;;;;19.07;72.61;156264.81;4994588;28;20462;-76
2023/07/05 01:09:06;;;;;;;3.27;2.70;;;;;;;19.06;72.66;156260.91;4987855;28;20512;-76
2023/07/05 01:11:36;;;;;;;2.60;2.40;;;;;;;19.07;72.64;156264.81;5008891;28;20457;-76
2023/07/05 01:14:07;;;;;;;3.17;2.40;;;;;;;19.10;72.54;156272.63;4990478;28;20479;-76
2023/07/05 01:16:44;;;;;;;3.27;2.70;;;;;;;19.14;72.50;156283.03;4988738;28;20450;-76
2023/07/05 01:19:24;;;;;;;3.70;2.50;;;;;;;19.17;72.13;156290.88;4988502;28;20463;-77
2023/07/05 01:21:58;;;;;;;3.60;2.70;;;;;;;19.15;72.45;156285.66;5010119;28;20548;-77
2023/07/05 01:24:39;;;;;;;2.57;2.30;;;;;;;19.12;72.81;156276.53;5001564;28;20463;-76
2023/07/05 01:27:44;;;;;;;5.10;3.17;;;;;;;19.11;74.25;156275.25;4991188;28;20453;-76
2023/07/05 01:30:28;;;;;;;3.50;2.70;;;;;;;19.07;75.32;156264.81;5001373;28;20460;-76
2023/07/05 01:32:58;;;;;;;4.87;3.13;;;;;;;19.06;76.15;156262.19;4989071;28;20473;-76
2023/07/05 01:35:28;;;;;;;3.13;2.83;;;;;;;19.02;76.29;156251.78;4989577;28;20861;-76
2023/07/05 01:37:55;;;;;;;3.53;2.83;;;;;;;18.98;76.44;156241.38;4996293;28;20463;-76
2023/07/05 01:40:51;;;;;;;2.73;2.40;;;;;;;18.98;75.87;156240.06;4990738;28;20461;-76
2023/07/05 01:43:18;;;;;;;3.90;2.40;;;;;;;18.97;75.78;156238.75;4990012;28;20450;-76
2023/07/05 01:45:59;;;;;;;4.20;2.73;;;;;;;18.99;75.49;156242.66;4985560;28;20577;-76
2023/07/05 01:48:33;;;;;;;3.07;2.40;;;;;;;18.94;75.66;156230.94;5000206;28;20461;-76
2023/07/05 01:51:06;;;;;;;3.13;2.23;;;;;;;18.90;75.60;156220.53;4985671;28;20978;-76
2023/07/05 01:53:36;;;;;;;2.73;2.43;;;;;;;18.87;75.37;156212.72;4986321;28;20457;-76
2023/07/05 01:56:06;;;;;;;2.40;1.93;;;;;;;18.86;75.36;156210.09;4987621;28;20460;-76
2023/07/05 01:58:36;;;;;;;3.33;2.37;;;;;;;18.84;75.05;156204.88;4987415;28;20472;-76
2023/07/05 02:01:04;;;;;;;2.97;2.23;;;;;;;18.86;75.00;156210.09;4983567;28;20488;-76
2023/07/05 02:03:32;;;;;;;3.20;2.97;;;;;;;18.85;75.08;156207.47;4993401;28;20462;-76
2023/07/05 02:05:58;;;;;;;2.63;2.20;;;;;;;18.84;75.29;156204.88;4999387;28;20453;-76
2023/07/05 02:08:27;;;;;;;2.33;2.13;;;;;;;18.88;74.92;156215.28;4990094;28;20450;-76
2023/07/05 02:10:54;;;;;;;3.90;2.87;;;;;;;18.88;74.85;156215.28;4981061;28;20467;-76
2023/07/05 02:13:21;;;;;;;2.30;1.97;;;;;;;18.90;74.69;156219.22;4985305;28;20568;-76
2023/07/05 02:15:51;;;;;;;2.53;2.17;;;;;;;18.91;74.36;156221.78;4981065;28;20449;-75
2023/07/05 02:18:21;;;;;;;2.57;2.37;;;;;;;18.93;74.24;156228.31;4991819;28;20453;-75
2023/07/05 02:20:49;;;;;;;2.50;2.20;;;;;;;18.95;74.16;156233.56;4971467;28;20869;-76
2023/07/05 02:23:16;;;;;;;2.50;2.03;;;;;;;18.93;74.65;156227.03;4982149;28;20942;-76
2023/07/05 02:25:43;;;;;;;3.23;2.60;;;;;;;18.93;74.72;156227.03;4985605;28;20465;-76
2023/07/05 02:28:11;;;;;;;3.00;2.10;;;;;;;18.92;74.46;156224.41;4986846;28;20457;-76
2023/07/05 02:30:38;;;;;;;2.83;2.10;;;;;;;18.94;74.27;156230.94;4990936;28;20454;-76
2023/07/05 02:33:04;;;;;;;2.60;2.27;;;;;;;18.94;74.16;156230.94;4987620;28;20477;-76
2023/07/05 02:35:35;;;;;;;2.50;2.03;;;;;;;18.95;74.03;156232.25;4978250;28;20473;-76
2023/07/05 02:38:02;;;;;;;2.10;1.90;;;;;;;18.92;74.15;156225.72;4989661;28;20470;-76
2023/07/05 02:40:29;;;;;;;2.70;2.30;;;;;;;18.90;74.22;156220.53;4989404;28;20461;-76
2023/07/05 02:42:59;;;;;;;2.93;2.20;;;;;;;18.89;74.54;156217.91;4990197;28;20981;-76
2023/07/05 02:45:26;;;;;;;3.20;1.93;;;;;;;18.89;74.93;156217.91;4984766;28;20485;-76
2023/07/05 02:47:53;;;;;;;2.43;2.23;;;;;;;18.92;75.40;156224.41;4982636;28;20466;-76
2023/07/05 02:50:20;;;;;;;2.80;1.93;;;;;;;18.93;75.38;156228.31;4991400;28;20445;-76
2023/07/05 02:52:47;;;;;;;3.13;2.30;;;;;;;18.95;75.44;156232.25;4989016;28;20446;-76
2023/07/05 02:55:17;;;;;;;2.37;2.17;;;;;;;18.94;75.30;156230.94;4985633;28;21228;-75
2023/07/05 02:57:43;;;;;;;2.73;2.07;;;;;;;18.95;75.11;156233.56;4987610;28;20453;-75
2023/07/05 03:00:11;;;;;;;2.20;2.00;;;;;;;18.94;75.29;156230.94;4994930;28;20820;-77
2023/07/05 03:02:38;;;;;;;2.60;1.80;;;;;;;18.95;75.03;156233.56;4989815;28;20457;-78
2023/07/05 03:05:08;;;;;;;2.63;2.20;;;;;;;18.93;75.33;156228.31;4976522;28;20455;-77
2023/07/05 03:07:35;;;;;;;3.60;2.30;;;;;;;18.91;75.58;156223.09;4969589;28;21254;-75
2023/07/05 03:10:01;;;;;;;3.83;2.40;;;;;;;18.90;75.64;156219.22;4982710;28;20977;-76
2023/07/05 03:12:30;;;;;;;2.70;2.43;;;;;;;18.89;75.69;156217.91;4993872;28;20465;-75
2023/07/05 03:14:58;;;;;;;2.70;2.50;;;;;;;18.89;76.15;156217.91;4984790;28;20489;-76
2023/07/05 03:17:24;;;;;;;2.60;1.90;;;;;;;18.91;76.59;156223.09;4988850;28;20461;-76
2023/07/05 03:19:52;;;;;;;3.07;1.90;;;;;;;18.94;76.99;156230.94;4996607;28;20956;-75
2023/07/05 03:22:20;;;;;;;2.70;2.40;;;;;;;18.94;76.92;156230.94;4976973;28;20469;-75
2023/07/05 03:24:46;;;;;;;2.73;1.93;;;;;;;18.91;77.43;156223.09;4990315;28;20468;-75
2023/07/05 03:27:14;;;;;;;2.50;2.20;;;;;;;18.87;77.21;156212.72;4980000;28;20544;-75
2023/07/05 03:29:42;;;;;;;2.30;2.10;;;;;;;18.85;77.25;156207.47;4999119;28;20507;-76
2023/07/05 03:32:08;;;;;;;3.07;2.40;;;;;;;18.82;77.36;156200.94;4987231;28;20540;-75
2023/07/05 03:34:35;;;;;;;2.50;2.20;;;;;;;18.77;77.59;156186.66;4972571;28;20576;-75
2023/07/05 03:37:02;;;;;;;3.57;2.37;;;;;;;18.73;78.01;156177.53;4985194;28;20540;-75
2023/07/05 03:39:28;;;;;;;4.63;2.77;;;;;;;18.70;78.28;156169.69;5000129;28;20468;-75
2023/07/05 03:41:56;;;;;;;2.93;2.37;;;;;;;18.69;78.75;156165.81;4989280;28;20466;-75
2023/07/05 03:44:24;;;;;;;2.50;2.30;;;;;;;18.67;79.07;156161.88;4981961;28;20462;-75
2023/07/05 03:46:52;;;;;;;3.10;2.50;;;;;;;18.64;80.37;156154.06;4975316;28;20461;-76
2023/07/05 03:49:18;;;;;;;2.87;2.50;;;;;;;18.59;80.52;156141.03;4985151;28;20470;-75
2023/07/05 03:51:45;;;;;;;3.10;2.63;;;;;;;18.60;81.13;156142.34;4989173;28;20479;-76
2023/07/05 03:54:12;;;;;;;2.60;2.37;;;;;;;18.61;81.86;156144.97;4987969;28;20461;-77
2023/07/05 03:56:38;;;;;;;2.90;2.20;;;;;;;18.57;82.30;156135.84;5004749;28;20457;-77
2023/07/05 03:59:05;;;;;;;3.30;2.00;;;;;;;18.52;82.94;156122.81;4992375;28;20941;-77
2023/07/05 04:01:32;;;;;;;2.40;2.20;;;;;;;18.53;83.51;156124.13;4976012;28;20465;-77
2023/07/05 04:04:01;;;;;;;2.90;2.30;;;;;;;18.46;83.93;156107.09;4987803;28;20556;-77
2023/07/05 04:06:30;;;;;;;2.70;2.20;;;;;;;18.44;84.52;156101.91;4998715;28;20824;-77
2023/07/05 04:08:57;;;;;;;2.93;2.13;;;;;;;18.45;84.30;156103.22;4996495;28;20470;-77
2023/07/05 04:11:24;;;;;;;3.07;2.33;;;;;;;18.40;85.30;156090.22;4985480;28;20971;-77
2023/07/05 04:13:52;;;;;;;3.10;2.57;;;;;;;18.40;85.25;156090.22;4985673;28;20468;-77
2023/07/05 04:16:20;;;;;;;2.50;2.00;;;;;;;18.40;85.82;156091.47;4984774;28;20963;-77
2023/07/05 04:18:48;;;;;;;3.00;2.37;;;;;;;18.41;85.92;156092.78;4983174;28;21038;-77
2023/07/05 04:21:15;;;;;;;2.20;2.00;;;;;;;18.39;86.50;156088.88;4995642;28;20457;-77
2023/07/05 04:23:43;;;;;;;2.53;2.33;;;;;;;18.38;86.47;156084.97;4971631;28;20465;-77
2023/07/05 04:26:11;;;;;;;2.70;2.10;;;;;;;18.40;86.49;156090.22;4983286;28;20596;-83
2023/07/05 04:28:39;;;;;;;2.60;2.40;;;;;;;18.37;86.70;156083.69;4986757;28;20465;-83
2023/07/05 04:31:07;;;;;;;6.90;3.80;;;;;;;18.37;87.27;156082.38;4999803;28;20454;-82
2023/07/05 04:33:34;;;;;;;3.97;2.60;;;;;;;18.36;87.49;156081.06;4976301;28;20494;-83
2023/07/05 04:36:02;;;;;;;2.97;2.67;;;;;;;18.34;87.93;156074.56;4981902;28;20828;-83
2023/07/05 04:38:30;;;;;;;3.30;2.40;;;;;;;18.34;87.72;156074.56;4992873;28;20555;-83
2023/07/05 04:40:58;;;;;;;5.17;2.47;;;;;;;18.36;87.48;156079.75;4983832;28;20452;-83
2023/07/05 04:43:24;;;;;;;3.83;2.30;;;;;;;18.39;87.56;156087.59;4981999;28;21051;-83
2023/07/05 04:45:51;;;;;;;2.47;2.27;;;;;;;18.37;87.72;156082.38;5013808;28;20453;-83
2023/07/05 04:48:18;;;;;;;3.53;2.70;;;;;;;18.37;88.11;156082.38;4971016;28;20839;-83
2023/07/05 04:50:44;;;;;;;2.47;1.90;;;;;;;18.35;88.28;156077.19;4988495;28;20457;-83
2023/07/05 04:53:11;;;;;;;3.13;2.00;;;;;;;18.34;89.18;156074.56;4985797;28;20478;-83
2023/07/05 04:55:44;;;;;;;2.40;1.73;;;;;;;18.33;89.09;156071.94;4970249;28;20973;-83
2023/07/05 04:58:11;;;;;;;2.43;1.80;;;;;;;18.36;89.08;156079.75;5000396;28;20460;-83
2023/07/05 05:00:38;;;;;;;3.70;1.90;;;;;;;18.35;89.26;156077.19;4984453;28;20459;-83
2023/07/05 05:03:05;;;;;;;3.00;2.20;;;;;;;18.42;89.39;156095.41;4984831;28;20495;-83
2023/07/05 05:05:31;;;;;;;2.63;2.00;;;;;;;18.54;89.50;156126.69;4978705;28;20462;-83
2023/07/05 05:07:58;;;;;;;3.07;2.77;;;;;;;18.76;89.36;156184.03;4972637;28;20536;-84
2023/07/05 05:10:25;;;;;;;3.77;2.20;;;;;;;19.10;88.10;156272.63;4995833;28;20578;-84
2023/07/05 05:12:52;;;;;;;2.50;2.13;;;;;;;19.42;86.66;156356.09;4980738;28;20437;-84
2023/07/05 05:15:19;;;;;;;2.27;2.07;;;;;;;19.62;84.95;156405.66;4994217;28;20483;-84
2023/07/05 05:17:46;;;;;;;3.23;2.10;;;;;;;19.70;83.72;156426.47;4979546;28;20457;-85
2023/07/05 05:20:12;;;;;;;3.50;1.77;;;;;;;19.66;83.54;156416.06;4974843;28;20470;-84
2023/07/05 05:22:39;;;;;;;2.40;1.80;;;;;;;19.61;83.66;156404.34;4974901;28;20531;-85
2023/07/05 05:25:07;;;;;;;2.80;2.00;;;;;;;19.72;84.26;156431.72;4974889;28;20465;-84
2023/07/05 05:27:34;;;;;;;2.50;2.30;;;;;;;20.01;83.55;156507.34;4975294;28;20450;-84
2023/07/05 05:30:02;;;;;;;2.40;2.20;;;;;;;20.30;81.95;156583.03;4976005;28;20791;-84
2023/07/05 05:32:29;;;;;;;4.50;2.10;;;;;;;20.48;80.84;156629.97;4976932;28;20502;-86
2023/07/05 05:34:55;;;;;;;3.60;2.27;;;;;;;20.53;80.00;156641.72;4975913;28;20526;-86
2023/07/05 05:37:22;;;;;;;3.57;2.30;;;;;;;20.51;80.07;156636.50;4973124;28;20457;-87
2023/07/05 05:39:49;;;;;;;2.60;1.60;;;;;;;20.50;80.29;156633.88;4972529;28;20469;-86
2023/07/05 05:42:15;;;;;;;3.00;2.13;;;;;;;20.43;80.46;156615.63;4974854;28;20461;-87
2023/07/05 05:44:42;;;;;;;2.07;1.80;;;;;;;20.34;80.41;156593.44;4975227;28;20457;-86
2023/07/05 05:47:10;;;;;;;2.47;1.90;;;;;;;20.31;80.61;156584.31;4971108;28;20465;-85
2023/07/05 05:49:37;;;;;;;4.00;2.03;;;;;;;20.24;80.73;156567.38;4971427;28;20458;-85
2023/07/05 05:52:04;;;;;;;2.37;2.17;;;;;;;20.27;80.77;156575.19;4975358;28;20450;-85
2023/07/05 05:54:31;;;;;;;2.70;1.83;;;;;;;20.42;80.19;156614.31;4990366;28;20457;-85
2023/07/05 05:56:57;;;;;;;2.50;1.93;;;;;;;20.71;78.66;156687.34;4990901;28;20564;-85
2023/07/05 05:59:26;;;;;;;2.03;1.80;;;;;;;20.90;77.69;156738.25;4963327;28;20489;-86
2023/07/05 06:01:55;;;;;;;2.63;2.43;;;;;;;20.98;77.22;156757.81;4976451;28;20936;-86
2023/07/05 06:04:23;;;;;;;2.53;2.03;;;;;;;20.98;77.07;156757.81;4976693;28;20453;-85
2023/07/05 06:06:49;;;;;;;2.53;2.10;;;;;;;20.95;76.96;156751.31;4976053;28;20445;-85
2023/07/05 06:09:16;;;;;;;4.10;2.07;;;;;;;20.99;76.89;156760.44;4982099;28;20943;-85
2023/07/05 06:11:42;;;;;;;2.70;2.50;;;;;;;21.06;76.81;156780.06;4977538;28;20453;-77
2023/07/05 06:14:09;;;;;;;2.13;1.80;;;;;;;21.34;77.00;156850.56;4972346;28;20991;-77
2023/07/05 06:16:36;;;;;;;2.90;2.20;;;;;;;21.75;75.79;156957.59;4993077;28;20475;-77
2023/07/05 06:19:03;;;;;;;3.03;2.20;;;;;;;21.95;72.77;157008.56;4979716;28;20571;-78
2023/07/05 06:21:31;;;;;;;2.33;2.13;;;;;;;21.93;72.23;157003.31;4975433;28;20464;-77
2023/07/05 06:23:58;;;;;;;2.10;1.90;;;;;;;21.91;71.74;156998.09;4965497;28;20501;-77
2023/07/05 06:26:24;;;;;;;2.83;2.13;;;;;;;21.85;71.47;156985.00;4978825;28;20460;-77
2023/07/05 06:28:51;;;;;;;2.87;1.80;;;;;;;21.88;72.69;156990.25;4976042;28;20461;-77
2023/07/05 06:31:18;;;;;;;3.07;2.23;;;;;;;22.16;71.22;157063.41;4990159;28;20449;-77
2023/07/05 06:33:45;;;;;;;2.67;2.00;;;;;;;22.23;70.43;157083.00;4977120;28;20533;-77
2023/07/05 06:36:12;;;;;;;3.33;2.30;;;;;;;22.31;69.91;157102.59;4979602;28;20470;-77
2023/07/05 06:38:43;;;;;;;3.00;2.10;;;;;;;22.31;69.94;157103.91;4961150;28;20479;-77
2023/07/05 06:41:10;;;;;;;2.53;2.17;;;;;;;22.31;70.32;157102.59;4980370;28;20536;-77
2023/07/05 06:43:36;;;;;;;3.93;1.87;;;;;;;22.18;70.33;157068.63;4984481;28;20454;-77
2023/07/05 06:46:07;;;;;;;3.30;2.40;;;;;;;22.06;73.14;157037.25;4983797;28;20446;-77
2023/07/05 06:48:34;;;;;;;2.60;2.30;;;;;;;21.93;76.71;157003.31;4979147;28;20468;-76
2023/07/05 06:51:01;;;;;;;5.67;2.50;;;;;;;21.82;79.27;156977.16;4976395;28;21003;-75
2023/07/05 06:53:27;;;;;;;3.33;1.97;;;;;;;21.65;81.66;156932.78;4957780;28;20469;-75
2023/07/05 06:55:56;;;;;;;2.53;2.33;;;;;;;21.52;83.68;156897.53;4978499;28;20478;-75
2023/07/05 06:58:22;;;;;;;2.87;2.13;;;;;;;21.37;85.17;156859.66;4977368;28;20465;-75
2023/07/05 07:00:50;;;;;;;2.50;2.17;;;;;;;21.22;87.54;156820.53;4973077;28;20492;-75
2023/07/05 07:03:18;;;;;;;6.20;2.30;;;;;;;21.10;88.32;156789.22;4976026;28;20460;-75
2023/07/05 07:05:51;;;;;;;6.10;2.97;;;;;;;20.92;89.83;156743.47;4974707;28;20442;-75
2023/07/05 07:08:17;;;;;;;3.33;2.70;;;;;;;20.76;92.24;156700.44;4968568;28;20443;-75
2023/07/05 07:10:44;;;;;;;3.50;2.83;;;;;;;20.62;94.38;156666.47;4979562;28;20457;-75
2023/07/05 07:13:12;;;;;;;3.20;2.60;;;;;;;20.50;95.62;156635.19;4976864;28;20458;-75
2023/07/05 07:15:38;;;;;;;3.50;2.07;;;;;;;20.42;96.74;156614.31;4981110;28;20485;-75
2023/07/05 07:18:05;;;;;;;4.03;2.50;;;;;;;20.35;96.98;156594.75;4977347;28;20447;-75
2023/07/05 07:20:31;;;;;;;3.10;2.80;;;;;;;20.28;97.83;156576.50;4977926;28;20464;-74
2023/07/05 07:22:59;;;;;;;4.17;2.53;;;;;;;20.19;97.40;156552.97;4978589;28;20457;-75
2023/07/05 07:25:25;;;;;;;3.00;2.20;;;;;;;20.17;98.41;156549.06;4974618;28;20876;-75
2023/07/05 07:27:52;;;;;;;4.00;2.17;;;;;;;20.22;98.97;156560.81;4977875;28;20454;-75
2023/07/05 07:30:20;;;;;;;2.70;1.70;;;;;;;20.30;99.29;156583.03;4977557;28;20856;-75
2023/07/05 07:32:47;;;;;;;3.37;2.43;;;;;;;20.31;99.42;156584.31;4977050;28;20490;-75
2023/07/05 07:35:14;;;;;;;3.20;2.20;;;;;;;20.35;99.10;156596.06;4977899;28;20447;-75
2023/07/05 07:37:40;;;;;;;2.87;2.00;;;;;;;20.40;99.37;156609.09;4974262;28;20455;-75
2023/07/05 07:40:08;;;;;;;2.80;1.70;;;;;;;20.43;99.69;156616.94;4976461;28;20577;-75
2023/07/05 07:42:35;;;;;;;5.70;2.27;;;;;;;20.45;100.00;156622.16;4975939;28;20451;-75
2023/07/05 07:45:01;;;;;;;4.67;2.10;;;;;;;20.59;99.98;156658.69;4975722;28;20469;-75
2023/07/05 07:47:29;;;;;;;3.10;2.17;;;;;;;20.96;100.00;156752.63;4977782;28;20808;-75
2023/07/05 07:49:56;;;;;;;4.23;1.80;;;;;;;21.18;99.90;156811.38;4978047;28;21022;-76
2023/07/05 07:52:22;;;;;;;2.63;1.70;;;;;;;21.28;97.13;156834.88;4993008;28;20784;-76
2023/07/05 07:54:49;;;;;;;2.50;2.00;;;;;;;21.31;96.85;156842.72;4975928;28;20920;-76
2023/07/05 07:57:15;;;;;;;2.90;2.13;;;;;;;21.22;96.41;156820.53;4977627;28;20482;-76
2023/07/05 07:59:42;;;;;;;2.70;1.70;;;;;;;21.09;95.04;156786.59;4975831;28;20489;-76
2023/07/05 08:02:12;;;;;;;2.83;2.07;;;;;;;20.99;95.57;156760.44;4977450;28;20454;-76
2023/07/05 08:04:43;;;;;;;1.70;1.37;;;;;;;20.92;94.67;156743.47;4992520;28;20962;-76
2023/07/05 08:07:10;;;;;;;2.20;1.60;;;;;;;20.81;93.55;156713.47;4960956;28;20458;-76
2023/07/05 08:09:37;;;;;;;2.20;1.33;;;;;;;20.74;91.25;156695.19;4991435;28;20826;-76
2023/07/05 08:12:04;;;;;;;2.50;1.57;;;;;;;20.69;92.27;156682.16;4976290;28;20508;-76
2023/07/05 08:14:30;;;;;;;3.60;1.67;;;;;;;20.66;89.40;156675.63;4977052;28;20466;-77
2023/07/05 08:16:57;;;;;;;2.23;1.60;;;;;;;20.63;90.94;156667.78;4978553;28;20473;-76
2023/07/05 08:19:23;;;;;;;1.90;1.50;;;;;;;20.53;90.02;156643.03;4978120;28;20458;-76
2023/07/05 08:21:51;;;;;;;2.50;1.60;;;;;;;20.38;89.55;156603.91;4993967;28;20465;-77
2023/07/05 08:24:18;;;;;;;1.80;1.53;;;;;;;20.19;90.86;156554.28;4976358;28;20459;-77
2023/07/05 08:26:45;;;;;;;1.97;1.43;;;;;;;20.02;93.01;156511.22;4975864;28;20434;-77
2023/07/05 08:29:12;;;;;;;1.87;1.43;;;;;;;19.91;94.35;156482.53;4976025;28;20832;-77
2023/07/05 08:31:38;;;;;;;2.43;1.57;;;;;;;19.77;94.67;156446.06;4976347;28;20484;-76
2023/07/05 08:34:05;;;;;;;2.53;1.43;;;;;;;19.73;93.42;156434.28;4974018;28;20489;-77
2023/07/05 08:36:34;;;;;;;3.20;1.50;;;;;;;19.66;93.71;156416.06;4976727;28;20481;-77
2023/07/05 08:39:03;;;;;;;1.77;1.37;;;;;;;19.57;94.65;156393.88;4975672;28;20450;-77
2023/07/05 08:41:46;;;;;;;2.27;1.30;;;;;;;19.51;94.57;156378.28;4974802;28;21065;-77
2023/07/05 08:44:20;;;;;;;3.30;1.50;;;;;;;19.46;95.52;156363.94;4974772;28;20576;-76
2023/07/05 08:46:49;;;;;;;2.77;1.67;;;;;;;19.45;96.31;156362.63;4977580;28;20439;-76
2023/07/05 08:49:21;;;;;;;1.67;1.20;;;;;;;19.47;96.04;156366.50;4975163;28;21069;-77
2023/07/05 08:51:47;;;;;;;1.57;1.10;;;;;;;19.48;95.75;156369.13;4976906;28;20941;-76
2023/07/05 08:54:16;;;;;;;3.13;1.40;;;;;;;19.49;94.48;156371.72;4977122;28;20517;-76
2023/07/05 08:56:48;;;;;;;2.07;1.37;;;;;;;19.58;95.03;156395.19;4974711;28;20548;-77
2023/07/05 08:59:21;;;;;;;1.83;1.30;;;;;;;19.61;95.47;156404.34;4974028;28;20463;-76
2023/07/05 09:01:49;;;;;;;1.73;1.23;;;;;;;19.56;92.37;156390.00;4981475;28;20533;-76
2023/07/05 09:04:25;;;;;;;1.70;1.20;;;;;;;19.59;94.26;156399.09;4982571;28;20921;-76
2023/07/05 09:06:55;;;;;;;1.30;1.10;;;;;;;19.58;93.85;156395.19;4974299;28;20964;-77
2023/07/05 09:09:31;;;;;;;2.70;1.40;;;;;;;19.53;94.20;156382.16;4974691;28;20450;-76
2023/07/05 09:12:10;;;;;;;2.20;1.20;;;;;;;19.63;94.83;156408.22;4974547;28;20459;-77
2023/07/05 09:14:45;;;;;;;2.97;1.83;;;;;;;19.77;94.14;156446.06;4989471;28;20604;-77
2023/07/05 09:17:18;;;;;;;2.37;1.73;;;;;;;19.97;93.54;156496.88;4974645;28;20581;-77
2023/07/05 09:19:49;;;;;;;1.80;1.43;;;;;;;20.07;92.26;156522.94;4974337;28;21052;-77
2023/07/05 09:22:20;;;;;;;1.90;1.50;;;;;;;20.13;90.62;156538.63;4973813;28;20903;-78
2023/07/05 09:24:48;;;;;;;2.43;1.40;;;;;;;20.21;89.67;156559.50;4975724;28;20454;-78
2023/07/05 09:27:18;;;;;;;2.20;1.77;;;;;;;20.26;89.94;156572.56;4976253;28;20904;-77
2023/07/05 09:29:48;;;;;;;1.90;1.30;;;;;;;20.29;90.26;156580.41;4976134;28;20569;-78
2023/07/05 09:32:18;;;;;;;2.50;1.77;;;;;;;20.36;89.55;156598.66;4975840;28;20940;-78
2023/07/05 09:34:47;;;;;;;2.47;1.80;;;;;;;20.41;89.51;156610.44;4975567;28;20840;-78
2023/07/05 09:37:16;;;;;;;2.17;1.70;;;;;;;20.42;89.24;156614.31;4994333;28;20696;-78
2023/07/05 09:39:56;;;;;;;2.17;1.83;;;;;;;20.39;87.21;156606.47;4980284;28;20891;-78
2023/07/05 09:42:27;;;;;;;2.60;1.80;;;;;;;20.40;86.94;156607.78;4980991;28;20466;-78
2023/07/05 09:44:54;;;;;;;2.60;1.93;;;;;;;20.42;85.82;156614.31;4978020;28;20458;-78
2023/07/05 09:47:21;;;;;;;2.83;1.97;;;;;;;20.45;84.69;156622.16;4979371;28;20450;-77
2023/07/05 09:49:47;;;;;;;3.10;2.50;;;;;;;20.52;85.41;156639.06;4977335;28;20843;-78
2023/07/05 09:52:14;;;;;;;3.53;2.37;;;;;;;20.46;84.57;156624.78;4979100;28;20467;-77
2023/07/05 09:54:41;;;;;;;2.40;2.10;;;;;;;20.76;86.42;156700.44;4979931;28;20462;-77
2023/07/05 09:57:12;;;;;;;2.87;2.57;;;;;;;20.99;82.99;156761.75;4978326;28;20469;-78
2023/07/05 09:59:38;;;;;;;3.20;2.53;;;;;;;21.39;83.21;156864.91;4978065;28;20450;-78
2023/07/05 10:02:19;;;;;;;3.77;3.13;;;;;;;21.61;79.07;156922.31;4979868;28;20997;-77
2023/07/05 10:04:47;;;;;;;2.50;2.30;;;;;;;21.71;78.30;156947.16;4978033;28;20463;-77
2023/07/05 10:07:15;;;;;;;3.43;2.50;;;;;;;21.75;73.74;156957.59;4978131;28;20883;-77
2023/07/05 10:09:55;;;;;;;2.93;2.27;;;;;;;21.85;75.88;156985.00;4977779;28;20541;-78
2023/07/05 10:12:24;;;;;;;2.97;2.40;;;;;;;21.89;74.38;156994.19;4978720;28;20460;-77
2023/07/05 10:14:55;;;;;;;2.90;2.20;;;;;;;21.96;67.13;157011.16;4978349;28;20453;-77
2023/07/05 10:17:21;;;;;;;4.07;2.73;;;;;;;22.11;66.50;157051.63;4979700;28;20873;-78
2023/07/05 10:19:50;;;;;;;3.20;2.77;;;;;;;22.25;63.93;157086.91;4978649;28;20457;-78
2023/07/05 10:22:25;;;;;;;2.50;2.20;;;;;;;22.40;63.20;157126.06;4984257;28;20547;-78
2023/07/05 10:24:53;;;;;;;3.13;2.40;;;;;;;22.48;63.29;157146.97;4994322;28;20556;-78
2023/07/05 10:27:25;;;;;;;2.93;2.23;;;;;;;22.58;61.11;157171.81;4978456;28;20850;-78
2023/07/05 10:30:00;;;;;;;3.33;2.60;;;;;;;22.58;57.98;157173.13;4994345;28;20528;-78
2023/07/05 10:32:27;;;;;;;3.97;2.33;;;;;;;22.58;54.38;157173.13;4993036;28;20489;-78
2023/07/05 10:34:55;;;;;;;2.60;2.10;;;;;;;22.62;53.43;157182.25;4978690;28;20461;-78
2023/07/05 10:37:29;;;;;;;3.37;2.53;;;;;;;22.69;52.51;157201.88;4980920;28;20474;-78
2023/07/05 10:39:56;;;;;;;3.00;2.30;;;;;;;22.83;53.60;157238.47;4983906;28;20457;-78
2023/07/05 10:42:24;;;;;;;4.47;2.77;;;;;;;22.88;47.45;157251.53;4984440;28;20829;-78
2023/07/05 10:44:51;;;;;;;3.77;2.60;;;;;;;22.95;53.66;157269.81;4978256;28;20786;-78
2023/07/05 10:47:18;;;;;;;4.60;2.07;;;;;;;23.08;50.70;157301.22;4979025;28;20556;-78
2023/07/05 10:49:46;;;;;;;6.57;2.27;;;;;;;23.10;51.56;157307.72;4978495;28;20463;-78
2023/07/05 10:52:16;;;;;;;6.93;2.90;;;;;;;23.19;50.12;157329.97;4979736;28;20488;-78
2023/07/05 10:54:46;;;;;;;3.03;2.60;;;;;;;23.23;47.21;157341.72;4977325;28;20445;-78
2023/07/05 10:57:17;;;;;;;3.10;2.47;;;;;;;23.40;50.52;157386.22;4979162;28;20470;-78
2023/07/05 10:59:48;;;;;;;3.30;2.67;;;;;;;23.46;50.96;157401.88;4979762;28;20461;-77
2023/07/05 11:02:37;;;;;;;4.10;2.50;;;;;;;23.51;50.72;157414.94;4978297;28;20455;-78
2023/07/05 11:05:05;;;;;;;3.40;2.50;;;;;;;23.44;48.15;157395.34;4979080;28;20553;-78
2023/07/05 11:07:33;;;;;;;7.70;2.20;;;;;;;23.51;47.06;157414.94;4979537;28;20462;-78
2023/07/05 11:10:00;;;;;;;2.90;2.57;;;;;;;23.54;49.48;157422.78;4977477;28;20458;-78
2023/07/05 11:12:29;;;;;;;3.57;2.53;;;;;;;23.62;51.61;157443.69;4993578;28;20482;-78
2023/07/05 11:14:58;;;;;;;3.03;2.50;;;;;;;23.61;46.04;157439.81;4976454;28;20454;-78
2023/07/05 11:17:30;;;;;;;3.23;2.73;;;;;;;23.68;50.94;157456.78;4978291;28;20509;-78
2023/07/05 11:19:57;;;;;;;7.60;2.90;;;;;;;23.66;48.84;157451.56;4985173;28;20454;-78
2023/07/05 11:22:45;;;;;;;2.97;2.67;;;;;;;23.67;48.56;157455.47;4993253;28;20964;-78
2023/07/05 11:25:13;;;;;;;3.83;2.57;;;;;;;23.61;47.62;157441.13;4992826;28;20549;-78
2023/07/05 11:27:52;;;;;;;2.93;2.50;;;;;;;23.63;48.35;157445.03;4980267;28;20504;-77
2023/07/05 11:30:44;;;;;;;2.97;2.67;;;;;;;23.66;45.57;157452.88;4992455;28;20477;-78